createdAt,value
2022-10-30T00:02:16.310Z,72.34
2022-10-30T00:04:47.597Z,72.17
2022-10-30T00:07:18.670Z,72.21
2022-10-30T00:09:49.707Z,72.25
2022-10-30T00:12:20.886Z,72.27
2022-10-30T00:14:51.842Z,72.29
2022-10-30T00:17:22.770Z,72.31
2022-10-30T00:19:53.780Z,72.21
2022-10-30T00:22:25.370Z,72.30
2022-10-30T00:24:56.849Z,72.20
2022-10-30T00:27:28.175Z,72.13
2022-10-30T00:29:59.268Z,72.21
2022-10-30T00:32:30.443Z,72.20
2022-10-30T00:35:01.376Z,72.23
2022-10-30T00:37:32.479Z,72.15
2022-10-30T00:40:03.469Z,72.14
2022-10-30T00:42:36.366Z,72.15
2022-10-30T00:45:12.515Z,72.30
2022-10-30T00:47:47.440Z,72.26
2022-10-30T00:50:22.651Z,72.31
2022-10-30T00:52:54.093Z,72.36
2022-10-30T00:55:33.128Z,72.39
2022-10-30T00:58:09.824Z,72.38
2022-10-30T01:00:43.517Z,72.43
2022-10-30T01:03:14.650Z,72.53
2022-10-30T01:05:50.117Z,72.49
2022-10-30T01:08:21.568Z,72.59
2022-10-30T01:10:53.001Z,72.57
2022-10-30T01:13:26.203Z,72.63
2022-10-30T01:16:23.908Z,72.71
2022-10-30T01:19:04.631Z,72.61
2022-10-30T01:21:50.333Z,72.61
2022-10-30T01:24:35.621Z,72.68
2022-10-30T01:27:23.466Z,72.63
2022-10-30T01:30:05.016Z,72.53
2022-10-30T01:32:56.456Z,72.45
2022-10-30T01:35:36.321Z,72.48
2022-10-30T01:38:12.935Z,72.51
2022-10-30T01:40:46.039Z,72.49
2022-10-30T01:43:16.937Z,72.51
2022-10-30T01:46:08.295Z,72.57
2022-10-30T01:49:08.173Z,72.35
2022-10-30T01:51:52.421Z,72.25
2022-10-30T01:54:30.449Z,72.22
2022-10-30T01:57:08.787Z,72.41
2022-10-30T01:59:47.306Z,72.36
2022-10-30T02:02:19.352Z,72.59
2022-10-30T02:04:51.627Z,72.41
2022-10-30T02:07:23.154Z,72.51
2022-10-30T02:09:56.020Z,72.57
2022-10-30T02:12:27.802Z,72.75
2022-10-30T02:15:01.888Z,72.70
2022-10-30T02:17:33.226Z,72.76
2022-10-30T02:20:04.386Z,72.81
2022-10-30T02:22:35.492Z,72.85
2022-10-30T02:25:07.899Z,72.78
2022-10-30T02:27:38.946Z,72.67
2022-10-30T02:30:14.244Z,72.72
2022-10-30T02:32:45.176Z,72.95
2022-10-30T02:35:16.694Z,73.11
2022-10-30T02:37:50.288Z,72.94
2022-10-30T02:40:21.221Z,72.94
2022-10-30T02:42:56.273Z,72.99
2022-10-30T02:45:27.171Z,73.04
2022-10-30T02:48:00.219Z,73.00
2022-10-30T02:50:31.729Z,73.00
2022-10-30T02:53:02.641Z,73.07
2022-10-30T02:55:33.491Z,73.08
2022-10-30T02:58:04.783Z,72.99
2022-10-30T03:00:36.494Z,72.84
2022-10-30T03:03:07.751Z,72.93
2022-10-30T03:05:39.000Z,72.89
2022-10-30T03:08:10.068Z,72.90
2022-10-30T03:10:40.946Z,72.91
2022-10-30T03:13:11.740Z,72.90
2022-10-30T03:15:42.570Z,72.99
2022-10-30T03:18:13.381Z,73.00
2022-10-30T03:20:45.391Z,73.10
2022-10-30T03:23:16.243Z,73.07
2022-10-30T03:25:48.388Z,73.09
2022-10-30T03:28:19.226Z,73.11
2022-10-30T03:30:50.485Z,72.89
2022-10-30T03:33:21.413Z,73.06
2022-10-30T03:35:52.287Z,72.98
2022-10-30T03:38:23.584Z,72.99
2022-10-30T03:40:55.359Z,73.10
2022-10-30T03:43:28.554Z,73.02
2022-10-30T03:45:59.580Z,73.00
2022-10-30T03:48:31.443Z,72.93
2022-10-30T03:51:02.863Z,73.03
2022-10-30T03:53:33.807Z,73.07
2022-10-30T03:56:06.437Z,73.15
2022-10-30T03:58:46.805Z,73.19
2022-10-30T04:01:18.841Z,73.21
2022-10-30T04:03:52.586Z,73.33
2022-10-30T04:06:23.753Z,73.36
2022-10-30T04:08:57.034Z,73.41
2022-10-30T04:11:29.706Z,73.31
2022-10-30T04:14:00.659Z,73.31
2022-10-30T04:16:31.732Z,73.23
2022-10-30T04:19:02.788Z,73.24
2022-10-30T04:21:33.785Z,73.26
2022-10-30T04:24:05.336Z,73.28
2022-10-30T04:26:37.258Z,73.36
2022-10-30T04:29:08.408Z,73.42
2022-10-30T04:31:39.344Z,73.42
2022-10-30T04:34:12.048Z,73.45
2022-10-30T04:36:42.943Z,73.55
2022-10-30T04:39:13.934Z,73.65
2022-10-30T04:41:45.785Z,73.71
2022-10-30T04:44:21.334Z,73.65
2022-10-30T04:46:52.673Z,73.60
2022-10-30T04:49:23.493Z,73.77
2022-10-30T04:51:54.346Z,73.86
2022-10-30T04:54:25.793Z,73.96
2022-10-30T04:56:56.692Z,74.02
2022-10-30T04:59:30.250Z,74.00
2022-10-30T05:02:01.243Z,74.03
2022-10-30T05:04:32.159Z,74.18
2022-10-30T05:07:03.876Z,74.39
2022-10-30T05:09:34.815Z,74.45
2022-10-30T05:12:06.142Z,74.38
2022-10-30T05:14:42.074Z,74.30
2022-10-30T05:17:12.949Z,74.36
2022-10-30T05:19:43.822Z,74.41
2022-10-30T05:22:15.500Z,74.36
2022-10-30T05:24:47.107Z,74.37
2022-10-30T05:27:18.696Z,74.41
2022-10-30T05:29:49.623Z,74.39
2022-10-30T05:32:20.545Z,74.34
2022-10-30T05:34:53.371Z,74.36
2022-10-30T05:37:26.839Z,74.30
2022-10-30T05:39:57.867Z,74.37
2022-10-30T05:42:30.924Z,74.41
2022-10-30T05:45:03.489Z,74.28
2022-10-30T05:47:38.232Z,74.29
2022-10-30T05:50:10.569Z,74.43
2022-10-30T05:52:41.543Z,74.55
2022-10-30T05:55:12.998Z,74.49
2022-10-30T05:58:02.384Z,74.31
2022-10-30T06:00:36.056Z,74.28
2022-10-30T06:03:10.931Z,74.32
2022-10-30T06:05:45.803Z,74.18
2022-10-30T06:08:17.601Z,74.01
2022-10-30T06:10:50.239Z,74.01
2022-10-30T06:13:25.779Z,74.05
2022-10-30T06:16:01.506Z,74.13
2022-10-30T06:18:45.776Z,74.25
2022-10-30T06:21:17.618Z,74.29
2022-10-30T06:24:12.931Z,74.36
2022-10-30T06:26:53.520Z,74.24
2022-10-30T06:29:25.340Z,74.18
2022-10-30T06:31:57.775Z,74.12
2022-10-30T06:34:30.869Z,74.00
2022-10-30T06:37:01.981Z,73.93
2022-10-30T06:39:33.157Z,73.87
2022-10-30T06:42:23.898Z,73.74
2022-10-30T06:45:10.354Z,73.56
2022-10-30T06:47:41.794Z,73.38
2022-10-30T06:50:15.058Z,73.32
2022-10-30T06:52:46.376Z,73.36
2022-10-30T06:55:17.331Z,73.40
2022-10-30T06:58:00.703Z,73.22
2022-10-30T07:03:44.968Z,72.99
2022-10-30T07:06:16.412Z,72.98
2022-10-30T07:08:47.348Z,72.96
2022-10-30T07:11:20.080Z,72.75
2022-10-30T07:14:04.007Z,72.75
2022-10-30T07:16:52.103Z,72.85
2022-10-30T07:19:23.054Z,72.74
2022-10-30T07:21:53.980Z,72.65
2022-10-30T07:24:25.083Z,72.44
2022-10-30T07:27:23.624Z,72.40
2022-10-30T07:30:04.054Z,72.32
2022-10-30T07:32:46.741Z,71.96
2022-10-30T07:35:26.296Z,71.85
2022-10-30T07:38:22.883Z,71.72
2022-10-30T07:41:00.310Z,71.78
2022-10-30T07:43:52.829Z,71.70
2022-10-30T07:46:48.433Z,71.73
2022-10-30T07:49:38.633Z,71.89
2022-10-30T07:52:16.236Z,71.75
2022-10-30T07:54:50.391Z,71.67
2022-10-30T07:58:00.250Z,71.51
2022-10-30T08:01:00.977Z,71.45
2022-10-30T08:03:34.842Z,71.52
2022-10-30T08:06:14.970Z,71.54
2022-10-30T08:08:47.963Z,71.65
2022-10-30T08:11:38.649Z,71.61
2022-10-30T08:14:12.101Z,71.58
2022-10-30T08:16:44.105Z,71.47
2022-10-30T08:19:15.759Z,71.51
2022-10-30T08:21:47.904Z,71.43
2022-10-30T08:24:26.617Z,71.44
2022-10-30T08:26:58.677Z,71.30
2022-10-30T08:29:30.739Z,71.12
2022-10-30T08:32:02.691Z,70.93
2022-10-30T08:34:52.704Z,70.66
2022-10-30T08:37:28.371Z,70.49
2022-10-30T08:39:59.909Z,70.20
2022-10-30T08:42:53.153Z,70.04
2022-10-30T08:45:29.821Z,69.86
2022-10-30T08:48:26.454Z,69.80
2022-10-30T08:51:02.259Z,69.61
2022-10-30T08:53:42.833Z,69.39
2022-10-30T08:56:16.839Z,69.29
2022-10-30T08:59:00.748Z,69.10
2022-10-30T09:01:32.720Z,69.08
2022-10-30T09:04:25.289Z,69.05
2022-10-30T09:07:34.944Z,69.01
2022-10-30T09:10:27.484Z,68.81
2022-10-30T09:13:00.225Z,68.84
2022-10-30T09:15:32.170Z,68.57
2022-10-30T09:18:05.563Z,68.27
2022-10-30T09:20:37.186Z,68.41
2022-10-30T09:23:08.322Z,68.52
2022-10-30T09:25:39.227Z,68.36
2022-10-30T09:28:17.063Z,68.08
2022-10-30T09:31:12.678Z,68.20
2022-10-30T09:33:43.667Z,68.20
2022-10-30T09:36:37.545Z,68.26
2022-10-30T09:39:08.429Z,68.19
2022-10-30T09:41:56.312Z,68.36
2022-10-30T09:44:36.480Z,68.26
2022-10-30T09:47:23.570Z,68.20
2022-10-30T09:50:12.911Z,68.33
2022-10-30T09:52:54.604Z,68.42
2022-10-30T09:55:42.556Z,68.27
2022-10-30T09:58:29.292Z,68.12
2022-10-30T10:01:09.801Z,68.31
2022-10-30T10:03:58.521Z,68.19
2022-10-30T10:07:04.086Z,68.09
2022-10-30T10:09:56.527Z,68.13
2022-10-30T10:12:48.382Z,68.12
2022-10-30T10:15:47.024Z,68.11
2022-10-30T10:18:24.411Z,67.84
2022-10-30T10:20:59.189Z,67.48
2022-10-30T10:23:37.290Z,67.11
2022-10-30T10:26:20.322Z,66.96
2022-10-30T10:29:05.363Z,66.70
2022-10-30T10:31:47.153Z,66.38
2022-10-30T10:34:51.215Z,66.30
2022-10-30T10:37:33.761Z,66.29
2022-10-30T10:40:45.906Z,65.79
2022-10-30T10:43:39.994Z,65.19
2022-10-30T10:46:35.926Z,65.02
2022-10-30T10:49:35.916Z,64.67
2022-10-30T10:52:41.329Z,64.31
2022-10-30T10:55:23.287Z,64.04
2022-10-30T10:58:07.926Z,63.68
2022-10-30T11:00:41.226Z,63.58
2022-10-30T11:03:20.587Z,63.56
2022-10-30T11:05:56.166Z,63.45
2022-10-30T11:08:29.813Z,63.23
2022-10-30T11:11:02.642Z,62.91
2022-10-30T11:13:36.732Z,62.80
2022-10-30T11:16:20.435Z,62.77
2022-10-30T11:18:56.378Z,62.68
2022-10-30T11:21:30.620Z,62.49
2022-10-30T11:24:01.992Z,62.32
2022-10-30T11:26:35.762Z,62.38
2022-10-30T11:29:13.680Z,62.19
2022-10-30T11:31:50.280Z,62.01
2022-10-30T11:34:34.743Z,61.95
2022-10-30T11:37:07.244Z,61.76
2022-10-30T11:39:39.003Z,61.49
2022-10-30T11:42:17.601Z,61.25
2022-10-30T11:44:53.465Z,61.08
2022-10-30T11:50:06.340Z,60.33
2022-10-30T11:52:42.444Z,60.08
2022-10-30T11:55:20.010Z,59.97
2022-10-30T11:57:53.347Z,60.05
2022-10-30T12:00:27.015Z,59.95
2022-10-30T12:03:01.310Z,59.86
2022-10-30T12:05:42.621Z,59.76
2022-10-30T12:08:23.893Z,59.67
2022-10-30T12:11:03.899Z,59.70
2022-10-30T12:13:40.641Z,59.32
2022-10-30T12:16:17.151Z,58.38
2022-10-30T12:18:58.957Z,57.98
2022-10-30T12:21:37.208Z,57.64
2022-10-30T12:24:15.451Z,57.50
2022-10-30T12:26:50.473Z,57.23
2022-10-30T12:29:22.148Z,57.13
2022-10-30T12:31:58.284Z,57.08
2022-10-30T12:34:37.608Z,57.18
2022-10-30T12:37:14.803Z,57.09
2022-10-30T12:39:55.967Z,56.98
2022-10-30T12:42:27.134Z,56.96
2022-10-30T12:45:10.109Z,57.04
2022-10-30T12:47:46.762Z,57.02
2022-10-30T12:50:24.462Z,57.13
2022-10-30T12:53:03.114Z,57.17
2022-10-30T12:55:40.842Z,57.20
2022-10-30T12:58:21.495Z,57.02
2022-10-30T13:00:58.265Z,57.05
2022-10-30T13:03:36.394Z,56.92
2022-10-30T13:06:16.987Z,56.97
2022-10-30T13:09:01.250Z,56.91
2022-10-30T13:11:40.658Z,57.10
2022-10-30T13:14:17.941Z,57.07
2022-10-30T13:17:01.546Z,57.27
2022-10-30T13:19:32.625Z,57.46
2022-10-30T13:22:08.845Z,57.49
2022-10-30T13:24:51.184Z,57.56
2022-10-30T13:27:36.543Z,57.42
2022-10-30T13:30:07.822Z,57.28
2022-10-30T13:32:54.503Z,57.20
2022-10-30T13:35:36.084Z,57.44
2022-10-30T13:38:25.607Z,57.60
2022-10-30T13:41:03.938Z,57.67
2022-10-30T13:43:44.355Z,57.65
2022-10-30T13:46:39.850Z,57.64
2022-10-30T13:49:25.998Z,57.67
2022-10-30T13:52:05.579Z,57.71
2022-10-30T13:54:57.117Z,57.72
2022-10-30T13:57:38.249Z,57.76
2022-10-30T14:00:21.571Z,57.84
2022-10-30T14:03:16.258Z,57.89
2022-10-30T14:05:54.916Z,58.01
2022-10-30T14:08:35.042Z,58.12
2022-10-30T14:11:09.889Z,58.21
2022-10-30T14:14:06.859Z,58.28
2022-10-30T14:16:38.539Z,58.33
2022-10-30T14:19:14.126Z,58.46
2022-10-30T14:21:52.119Z,58.46
2022-10-30T14:27:12.368Z,58.75
2022-10-30T14:29:49.578Z,58.94
2022-10-30T14:32:40.591Z,59.09
2022-10-30T14:35:36.899Z,59.34
2022-10-30T14:38:36.566Z,59.43
2022-10-30T14:41:21.752Z,59.64
2022-10-30T14:44:04.963Z,59.71
2022-10-30T14:46:45.597Z,59.78
2022-10-30T14:49:45.072Z,59.88
2022-10-30T14:52:23.257Z,60.05
2022-10-30T14:55:07.242Z,60.09
2022-10-30T14:57:52.804Z,60.25
2022-10-30T15:00:46.634Z,60.39
2022-10-30T15:03:45.921Z,60.48
2022-10-30T15:06:28.125Z,60.57
2022-10-30T15:09:11.615Z,60.63
2022-10-30T15:12:01.370Z,60.80
2022-10-30T15:14:53.061Z,60.86
2022-10-30T15:17:31.625Z,60.99
2022-10-30T15:20:07.807Z,61.15
2022-10-30T15:22:39.540Z,61.36
2022-10-30T15:25:19.536Z,61.18
2022-10-30T15:27:53.305Z,61.29
2022-10-30T15:30:26.058Z,61.52
2022-10-30T15:32:57.644Z,61.78
2022-10-30T15:35:31.288Z,61.75
2022-10-30T15:38:07.203Z,61.84
2022-10-30T15:40:39.857Z,61.91
2022-10-30T15:43:15.392Z,62.08
2022-10-30T15:45:51.273Z,62.30
2022-10-30T15:48:27.952Z,62.42
2022-10-30T15:51:03.486Z,62.61
2022-10-30T15:53:45.006Z,62.82
2022-10-30T15:56:24.062Z,62.92
2022-10-30T15:58:58.478Z,63.05
2022-10-30T16:01:38.845Z,63.06
2022-10-30T16:04:18.108Z,63.14
2022-10-30T16:06:54.034Z,63.39
2022-10-30T16:09:25.858Z,63.49
2022-10-30T16:12:00.169Z,63.74
2022-10-30T16:14:33.110Z,63.82
2022-10-30T16:17:04.642Z,63.99
2022-10-30T16:19:43.017Z,64.06
2022-10-30T16:22:20.017Z,64.16
2022-10-30T16:24:51.158Z,64.31
2022-10-30T16:27:24.191Z,64.37
2022-10-30T16:29:58.249Z,64.31
2022-10-30T16:32:31.593Z,64.46
2022-10-30T16:35:08.773Z,64.52
2022-10-30T16:37:41.589Z,64.82
2022-10-30T16:40:17.395Z,64.86
2022-10-30T16:42:54.762Z,64.87
2022-10-30T16:45:57.954Z,64.82
2022-10-30T16:48:35.567Z,65.03
2022-10-30T16:51:07.167Z,65.15
2022-10-30T16:53:38.385Z,65.35
2022-10-30T16:56:20.784Z,65.38
2022-10-30T16:58:53.185Z,65.52
2022-10-30T17:01:27.523Z,65.60
2022-10-30T17:03:59.702Z,65.70
2022-10-30T17:06:38.792Z,65.59
2022-10-30T17:09:20.905Z,65.89
2022-10-30T17:12:10.649Z,65.88
2022-10-30T17:14:56.735Z,66.03
2022-10-30T17:17:33.883Z,66.04
2022-10-30T17:20:29.986Z,66.15
2022-10-30T17:23:17.956Z,66.24
2022-10-30T17:25:48.976Z,66.41
2022-10-30T17:28:30.327Z,66.52
2022-10-30T17:31:22.669Z,66.56
2022-10-30T17:34:17.784Z,66.51
2022-10-30T17:36:50.029Z,66.58
2022-10-30T17:39:21.105Z,66.60
2022-10-30T17:42:00.011Z,66.64
2022-10-30T17:44:35.982Z,66.73
2022-10-30T17:47:15.533Z,66.70
2022-10-30T17:49:46.859Z,66.71
2022-10-30T17:52:21.645Z,66.73
2022-10-30T17:55:00.907Z,66.81
2022-10-30T17:57:35.672Z,66.82
2022-10-30T18:00:11.565Z,66.88
2022-10-30T18:02:42.484Z,66.84
2022-10-30T18:05:26.704Z,66.77
2022-10-30T18:08:03.806Z,66.89
2022-10-30T18:10:34.746Z,66.98
2022-10-30T18:13:05.691Z,67.11
2022-10-30T18:15:41.093Z,67.19
2022-10-30T18:18:12.154Z,67.47
2022-10-30T18:20:43.127Z,67.62
2022-10-30T18:23:46.732Z,67.75
2022-10-30T18:26:17.164Z,67.73
2022-10-30T18:28:48.477Z,67.85
2022-10-30T18:31:24.865Z,67.96
2022-10-30T18:33:55.880Z,67.89
2022-10-30T18:36:27.713Z,67.92
2022-10-30T18:38:58.784Z,67.98
2022-10-30T18:41:33.030Z,67.92
2022-10-30T18:44:04.374Z,67.93
2022-10-30T18:46:42.311Z,67.84
2022-10-30T18:49:13.510Z,67.80
2022-10-30T18:51:44.835Z,67.85
2022-10-30T18:54:17.729Z,67.90
2022-10-30T18:56:49.923Z,68.01
2022-10-30T18:59:20.974Z,67.98
2022-10-30T19:01:52.024Z,68.12
2022-10-30T19:04:23.058Z,68.15
2022-10-30T19:06:54.011Z,68.20
2022-10-30T19:09:24.872Z,68.27
2022-10-30T19:11:57.447Z,68.60
2022-10-30T19:14:38.502Z,68.72
2022-10-30T19:17:10.139Z,68.84
2022-10-30T19:19:41.238Z,68.82
2022-10-30T19:22:20.084Z,68.76
2022-10-30T19:24:50.871Z,68.76
2022-10-30T19:27:22.969Z,68.75
2022-10-30T19:29:57.961Z,68.87
2022-10-30T19:32:28.971Z,68.91
2022-10-30T19:35:00.015Z,68.99
2022-10-30T19:37:31.238Z,69.14
2022-10-30T19:40:13.647Z,68.99
2022-10-30T19:42:44.712Z,69.06
2022-10-30T19:45:16.552Z,69.06
2022-10-30T19:47:51.003Z,69.09
2022-10-30T19:50:26.199Z,69.07
2022-10-30T19:52:58.982Z,69.05
2022-10-30T19:55:33.269Z,69.02
2022-10-30T19:58:05.455Z,69.04
2022-10-30T20:00:38.047Z,69.08
2022-10-30T20:03:15.869Z,69.27
2022-10-30T20:05:49.255Z,69.30
2022-10-30T20:08:23.135Z,69.41
2022-10-30T20:10:58.314Z,69.40
2022-10-30T20:13:30.491Z,69.59
2022-10-30T20:16:05.064Z,69.55
2022-10-30T20:18:40.022Z,69.70
2022-10-30T20:21:14.651Z,69.69
2022-10-30T20:23:46.355Z,69.63
2022-10-30T20:26:28.098Z,69.57
2022-10-30T20:29:02.419Z,69.54
2022-10-30T20:31:34.796Z,69.54
2022-10-30T20:34:08.116Z,69.70
2022-10-30T20:36:40.106Z,69.88
2022-10-30T20:39:14.444Z,69.94
2022-10-30T20:41:45.829Z,70.08
2022-10-30T20:44:17.478Z,70.44
2022-10-30T20:46:48.775Z,70.51
2022-10-30T20:49:21.173Z,70.37
2022-10-30T20:51:52.262Z,70.42
2022-10-30T20:54:26.243Z,70.54
2022-10-30T20:56:57.871Z,70.82
2022-10-30T20:59:31.760Z,70.72
2022-10-30T21:02:05.940Z,70.46
2022-10-30T21:04:38.025Z,70.25
2022-10-30T21:07:09.068Z,70.13
2022-10-30T21:09:40.651Z,70.09
2022-10-30T21:12:12.040Z,70.09
2022-10-30T21:14:43.123Z,69.97
2022-10-30T21:17:14.671Z,69.95
2022-10-30T21:19:45.727Z,69.93
2022-10-30T21:22:16.907Z,70.03
2022-10-30T21:24:47.973Z,70.17
2022-10-30T21:27:24.449Z,70.24
2022-10-30T21:29:56.209Z,70.36
2022-10-30T21:32:27.267Z,70.37
2022-10-30T21:34:59.391Z,70.42
2022-10-30T21:37:30.304Z,70.38
2022-10-30T21:40:01.457Z,70.47
2022-10-30T21:42:33.009Z,70.47
2022-10-30T21:45:04.359Z,70.43
2022-10-30T21:47:36.026Z,70.44
2022-10-30T21:50:12.136Z,70.51
2022-10-30T21:52:44.001Z,70.50
2022-10-30T21:55:18.324Z,70.44
2022-10-30T21:57:49.573Z,70.46
2022-10-30T22:00:23.024Z,70.55
2022-10-30T22:02:56.174Z,70.66
2022-10-30T22:05:27.400Z,70.53
2022-10-30T22:08:00.146Z,70.68
2022-10-30T22:10:31.748Z,70.81
2022-10-30T22:13:03.132Z,70.84
2022-10-30T22:15:34.059Z,70.65
2022-10-30T22:18:05.348Z,70.61
2022-10-30T22:20:37.689Z,70.54
2022-10-30T22:23:10.069Z,70.62
2022-10-30T22:25:40.939Z,70.56
2022-10-30T22:28:12.009Z,70.60
2022-10-30T22:30:43.743Z,70.51
2022-10-30T22:33:16.494Z,70.49
2022-10-30T22:35:49.379Z,70.60
2022-10-30T22:38:20.523Z,70.68
2022-10-30T22:40:51.875Z,70.79
2022-10-30T22:43:23.224Z,70.87
2022-10-30T22:45:56.826Z,70.87
2022-10-30T22:48:30.532Z,71.05
2022-10-30T22:51:04.594Z,71.02
2022-10-30T22:53:35.751Z,71.15
2022-10-30T22:56:17.771Z,71.31
2022-10-30T22:58:50.745Z,71.39
2022-10-30T23:01:24.539Z,71.30
2022-10-30T23:03:58.130Z,71.36
2022-10-30T23:06:31.150Z,71.40
2022-10-30T23:09:05.916Z,71.26
2022-10-30T23:11:37.263Z,71.13
2022-10-30T23:14:08.364Z,71.21
2022-10-30T23:16:39.490Z,71.16
2022-10-30T23:19:11.593Z,71.15
2022-10-30T23:21:42.449Z,71.46
2022-10-30T23:24:13.618Z,71.61
2022-10-30T23:26:44.811Z,71.62
2022-10-30T23:29:15.867Z,71.28
2022-10-30T23:31:48.541Z,71.17
2022-10-30T23:34:20.091Z,71.17
2022-10-30T23:36:51.117Z,71.35
2022-10-30T23:39:21.980Z,71.39
2022-10-30T23:41:53.173Z,71.66
2022-10-30T23:44:24.280Z,71.94
2022-10-30T23:46:55.504Z,71.87
2022-10-30T23:49:31.470Z,71.58
2022-10-30T23:52:04.366Z,71.21
2022-10-30T23:54:35.292Z,70.97
2022-10-30T23:57:06.929Z,71.02
2022-10-30T23:59:37.729Z,71.00
